sensor_id;sensor_type;location;lat;lon;timestamp;pressure;altitude;pressure_sealevel;temperature;humidity
20455;BME280;10386;54.314;10.022;2023-12-04T00:01:17;102053.28;;;0.18;100.00
20455;BME280;10386;54.314;10.022;2023-12-04T00:03:44;102056.81;;;0.23;100.00
20455;BME280;10386;54.314;10.022;2023-12-04T00:06:12;102047.88;;;0.22;100.00
20455;BME280;10386;54.314;10.022;2023-12-04T00:08:39;102049.53;;;0.35;100.00
20455;BME280;10386;54.314;10.022;2023-12-04T00:11:06;102045.16;;;0.30;100.00
20455;BME280;10386;54.314;10.022;2023-12-04T00:13:33;102038.00;;;0.30;100.00
20455;BME280;10386;54.314;10.022;2023-12-04T00:16:01;102040.81;;;0.18;100.00
20455;BME280;10386;54.314;10.022;2023-12-04T00:18:28;102032.84;;;0.17;100.00
20455;BME280;10386;54.314;10.022;2023-12-04T00:20:56;102031.94;;;0.16;100.00
20455;BME280;10386;54.314;10.022;2023-12-04T00:23:22;102024.75;;;0.21;100.00
20455;BME280;10386;54.314;10.022;2023-12-04T00:25:49;102016.78;;;0.18;100.00
20455;BME280;10386;54.314;10.022;2023-12-04T00:28:16;102008.88;;;0.09;100.00
20455;BME280;10386;54.314;10.022;2023-12-04T00:30:44;102020.38;;;0.16;100.00
20455;BME280;10386;54.314;10.022;2023-12-04T00:33:11;102019.31;;;0.30;100.00
20455;BME280;10386;54.314;10.022;2023-12-04T00:35:38;102014.91;;;0.26;100.00
20455;BME280;10386;54.314;10.022;2023-12-04T00:38:04;102013.19;;;0.22;100.00
20455;BME280;10386;54.314;10.022;2023-12-04T00:40:31;102010.53;;;0.19;100.00
20455;BME280;10386;54.314;10.022;2023-12-04T00:42:58;102008.81;;;0.17;100.00
20455;BME280;10386;54.314;10.022;2023-12-04T00:45:25;102004.31;;;0.22;100.00
20455;BME280;10386;54.314;10.022;2023-12-04T00:47:53;102001.66;;;0.17;100.00
20455;BME280;10386;54.314;10.022;2023-12-04T00:50:20;101999.06;;;0.13;100.00
20455;BME280;10386;54.314;10.022;2023-12-04T00:52:46;102001.81;;;0.07;100.00
20455;BME280;10386;54.314;10.022;2023-12-04T00:55:13;101986.66;;;0.07;100.00
20455;BME280;10386;54.314;10.022;2023-12-04T00:57:40;101988.44;;;0.05;100.00
20455;BME280;10386;54.314;10.022;2023-12-04T01:00:07;101987.81;;;-0.17;100.00
20455;BME280;10386;54.314;10.022;2023-12-04T01:02:34;101987.72;;;-0.10;100.00
20455;BME280;10386;54.314;10.022;2023-12-04T01:05:01;101980.63;;;-0.14;100.00
20455;BME280;10386;54.314;10.022;2023-12-04T01:07:28;101984.31;;;-0.25;100.00
20455;BME280;10386;54.314;10.022;2023-12-04T01:09:55;101973.66;;;-0.25;100.00
20455;BME280;10386;54.314;10.022;2023-12-04T01:12:22;101970.94;;;-0.24;100.00
20455;BME280;10386;54.314;10.022;2023-12-04T01:14:49;101969.19;;;-0.23;100.00
20455;BME280;10386;54.314;10.022;2023-12-04T01:17:16;101968.34;;;-0.28;100.00
20455;BME280;10386;54.314;10.022;2023-12-04T01:19:43;101967.47;;;-0.32;100.00
20455;BME280;10386;54.314;10.022;2023-12-04T01:22:10;101970.19;;;-0.38;100.00
20455;BME280;10386;54.314;10.022;2023-12-04T01:24:36;101967.56;;;-0.39;100.00
20455;BME280;10386;54.314;10.022;2023-12-04T01:27:03;101972.78;;;-0.29;100.00
20455;BME280;10386;54.314;10.022;2023-12-04T01:29:30;101966.63;;;-0.37;100.00
20455;BME280;10386;54.314;10.022;2023-12-04T01:31:59;101963.97;;;-0.37;100.00
20455;BME280;10386;54.314;10.022;2023-12-04T01:34:25;101964.03;;;-0.47;100.00
20455;BME280;10386;54.314;10.022;2023-12-04T01:36:52;101964.97;;;-0.51;100.00
20455;BME280;10386;54.314;10.022;2023-12-04T01:39:19;101969.31;;;-0.37;100.00
20455;BME280;10386;54.314;10.022;2023-12-04T01:41:46;101967.66;;;-0.50;100.00
20455;BME280;10386;54.314;10.022;2023-12-04T01:44:13;101959.56;;;-0.39;100.00
20455;BME280;10386;54.314;10.022;2023-12-04T01:46:42;101963.19;;;-0.49;100.00
20455;BME280;10386;54.314;10.022;2023-12-04T01:49:09;101969.47;;;-0.55;100.00
20455;BME280;10386;54.314;10.022;2023-12-04T01:51:36;101971.19;;;-0.52;100.00
20455;BME280;10386;54.314;10.022;2023-12-04T01:54:04;101971.25;;;-0.57;100.00
20455;BME280;10386;54.314;10.022;2023-12-04T01:56:33;101968.59;;;-0.58;100.00
20455;BME280;10386;54.314;10.022;2023-12-04T01:59:01;101967.72;;;-0.59;100.00
20455;BME280;10386;54.314;10.022;2023-12-04T02:01:28;101962.31;;;-0.50;100.00
20455;BME280;10386;54.314;10.022;2023-12-04T02:03:56;101954.38;;;-0.56;100.00
20455;BME280;10386;54.314;10.022;2023-12-04T02:06:23;101953.69;;;-0.82;100.00
20455;BME280;10386;54.314;10.022;2023-12-04T02:08:51;101957.13;;;-0.68;100.00
20455;BME280;10386;54.314;10.022;2023-12-04T02:11:18;101955.44;;;-0.78;100.00
20455;BME280;10386;54.314;10.022;2023-12-04T02:13:45;101950.16;;;-0.84;100.00
20455;BME280;10386;54.314;10.022;2023-12-04T02:16:13;101942.16;;;-0.85;100.00
20455;BME280;10386;54.314;10.022;2023-12-04T02:18:42;101936.00;;;-0.93;100.00
20455;BME280;10386;54.314;10.022;2023-12-04T02:21:09;101930.63;;;-0.89;100.00
20455;BME280;10386;54.314;10.022;2023-12-04T02:23:36;101929.72;;;-0.88;100.00
20455;BME280;10386;54.314;10.022;2023-12-04T02:26:13;101928.06;;;-0.99;100.00
20455;BME280;10386;54.314;10.022;2023-12-04T02:28:42;101933.47;;;-1.11;100.00
20455;BME280;10386;54.314;10.022;2023-12-04T02:31:12;101938.84;;;-1.19;100.00
20455;BME280;10386;54.314;10.022;2023-12-04T02:33:40;101917.44;;;-1.05;100.00
20455;BME280;10386;54.314;10.022;2023-12-04T02:36:08;101929.94;;;-1.18;100.00
20455;BME280;10386;54.314;10.022;2023-12-04T02:38:36;101921.09;;;-1.20;100.00
20455;BME280;10386;54.314;10.022;2023-12-04T02:41:04;101921.97;;;-1.18;100.00
20455;BME280;10386;54.314;10.022;2023-12-04T02:43:31;101922.00;;;-1.27;100.00
20455;BME280;10386;54.314;10.022;2023-12-04T02:46:00;101910.47;;;-1.26;100.00
20455;BME280;10386;54.314;10.022;2023-12-04T02:48:27;101912.28;;;-1.31;100.00
20455;BME280;10386;54.314;10.022;2023-12-04T02:50:54;101916.72;;;-1.33;100.00
20455;BME280;10386;54.314;10.022;2023-12-04T02:53:20;101913.16;;;-1.30;100.00
20455;BME280;10386;54.314;10.022;2023-12-04T02:55:48;101906.09;;;-1.37;100.00
20455;BME280;10386;54.314;10.022;2023-12-04T02:58:14;101910.59;;;-1.43;100.00
20455;BME280;10386;54.314;10.022;2023-12-04T03:00:41;101914.16;;;-1.49;100.00
20455;BME280;10386;54.314;10.022;2023-12-04T03:03:08;101902.63;;;-1.51;100.00
20455;BME280;10386;54.314;10.022;2023-12-04T03:05:37;101907.09;;;-1.54;100.00
20455;BME280;10386;54.314;10.022;2023-12-04T03:08:04;101906.22;;;-1.58;100.00
20455;BME280;10386;54.314;10.022;2023-12-04T03:10:31;101897.34;;;-1.55;100.00
20455;BME280;10386;54.314;10.022;2023-12-04T03:12:57;101898.28;;;-1.62;100.00
20455;BME280;10386;54.314;10.022;2023-12-04T03:15:24;101890.31;;;-1.65;100.00
20455;BME280;10386;54.314;10.022;2023-12-04T03:17:51;101890.31;;;-1.71;100.00
20455;BME280;10386;54.314;10.022;2023-12-04T03:20:18;101894.78;;;-1.78;100.00
20455;BME280;10386;54.314;10.022;2023-12-04T03:22:45;101892.13;;;-1.79;100.00
20455;BME280;10386;54.314;10.022;2023-12-04T03:25:12;101884.16;;;-1.82;100.00
20455;BME280;10386;54.314;10.022;2023-12-04T03:27:39;101879.72;;;-1.83;100.00
20455;BME280;10386;54.314;10.022;2023-12-04T03:30:06;101873.56;;;-1.90;100.00
20455;BME280;10386;54.314;10.022;2023-12-04T03:32:33;101875.28;;;-1.81;100.00
20455;BME280;10386;54.314;10.022;2023-12-04T03:35:00;101870.03;;;-1.92;100.00
20455;BME280;10386;54.314;10.022;2023-12-04T03:37:28;101872.66;;;-1.89;100.00
20455;BME280;10386;54.314;10.022;2023-12-04T03:39:54;101871.81;;;-1.94;100.00
20455;BME280;10386;54.314;10.022;2023-12-04T03:42:21;101870.91;;;-1.94;100.00
20455;BME280;10386;54.314;10.022;2023-12-04T03:44:48;101867.38;;;-1.92;100.00
20455;BME280;10386;54.314;10.022;2023-12-04T03:47:15;101864.75;;;-2.01;100.00
20455;BME280;10386;54.314;10.022;2023-12-04T03:49:42;101867.44;;;-2.11;100.00
20455;BME280;10386;54.314;10.022;2023-12-04T03:52:08;101872.75;;;-2.13;100.00
20455;BME280;10386;54.314;10.022;2023-12-04T03:54:35;101863.91;;;-2.09;100.00
20455;BME280;10386;54.314;10.022;2023-12-04T03:57:02;101857.66;;;-2.06;100.00
20455;BME280;10386;54.314;10.022;2023-12-04T03:59:29;101857.66;;;-1.99;100.00
20455;BME280;10386;54.314;10.022;2023-12-04T04:01:56;101851.44;;;-2.05;100.00
20455;BME280;10386;54.314;10.022;2023-12-04T04:04:22;101852.38;;;-2.11;100.00
20455;BME280;10386;54.314;10.022;2023-12-04T04:06:49;101855.06;;;-2.24;100.00
20455;BME280;10386;54.314;10.022;2023-12-04T04:09:16;101862.13;;;-2.19;100.00
20455;BME280;10386;54.314;10.022;2023-12-04T04:11:43;101862.19;;;-2.29;100.00
20455;BME280;10386;54.314;10.022;2023-12-04T04:14:10;101846.22;;;-2.28;100.00
20455;BME280;10386;54.314;10.022;2023-12-04T04:16:37;101843.50;;;-2.14;100.00
20455;BME280;10386;54.314;10.022;2023-12-04T04:19:05;101852.41;;;-2.24;100.00
20455;BME280;10386;54.314;10.022;2023-12-04T04:21:33;101849.75;;;-2.23;100.00
20455;BME280;10386;54.314;10.022;2023-12-04T04:24:01;101843.56;;;-2.26;100.00
20455;BME280;10386;54.314;10.022;2023-12-04T04:26:30;101839.94;;;-2.10;100.00
20455;BME280;10386;54.314;10.022;2023-12-04T04:29:00;101836.47;;;-2.29;100.00
20455;BME280;10386;54.314;10.022;2023-12-04T04:31:26;101832.88;;;-2.11;100.00
20455;BME280;10386;54.314;10.022;2023-12-04T04:33:53;101827.53;;;-2.11;100.00
20455;BME280;10386;54.314;10.022;2023-12-04T04:36:20;101832.00;;;-2.12;100.00
20455;BME280;10386;54.314;10.022;2023-12-04T04:38:47;101828.44;;;-2.15;100.00
20455;BME280;10386;54.314;10.022;2023-12-04T04:41:14;101826.72;;;-2.22;100.00
20455;BME280;10386;54.314;10.022;2023-12-04T04:43:42;101820.44;;;-2.06;100.00
20455;BME280;10386;54.314;10.022;2023-12-04T04:46:09;101816.03;;;-2.16;100.00
20455;BME280;10386;54.314;10.022;2023-12-04T04:48:36;101824.88;;;-2.13;100.00
20455;BME280;10386;54.314;10.022;2023-12-04T04:51:03;101831.09;;;-2.14;100.00
20455;BME280;10386;54.314;10.022;2023-12-04T04:53:30;101825.78;;;-2.17;100.00
20455;BME280;10386;54.314;10.022;2023-12-04T04:55:59;101834.66;;;-2.24;100.00
20455;BME280;10386;54.314;10.022;2023-12-04T04:58:28;101836.44;;;-2.21;100.00
20455;BME280;10386;54.314;10.022;2023-12-04T05:00:56;101828.41;;;-2.09;100.00
20455;BME280;10386;54.314;10.022;2023-12-04T05:03:23;101826.69;;;-2.16;100.00
20455;BME280;10386;54.314;10.022;2023-12-04T05:05:51;101816.03;;;-2.13;100.00
20455;BME280;10386;54.314;10.022;2023-12-04T05:08:17;101826.69;;;-2.16;100.00
20455;BME280;10386;54.314;10.022;2023-12-04T05:10:44;101809.78;;;-2.06;100.00
20455;BME280;10386;54.314;10.022;2023-12-04T05:13:13;101819.56;;;-2.14;100.00
20455;BME280;10386;54.314;10.022;2023-12-04T05:15:39;101817.84;;;-2.21;100.00
20455;BME280;10386;54.314;10.022;2023-12-04T05:18:06;101821.38;;;-2.22;100.00
20455;BME280;10386;54.314;10.022;2023-12-04T05:20:33;101816.88;;;-2.08;100.00
20455;BME280;10386;54.314;10.022;2023-12-04T05:23:02;101811.59;;;-2.16;100.00
20455;BME280;10386;54.314;10.022;2023-12-04T05:25:30;101814.31;;;-2.26;100.00
20455;BME280;10386;54.314;10.022;2023-12-04T05:28:06;101820.53;;;-2.32;100.00
20455;BME280;10386;54.314;10.022;2023-12-04T05:30:33;101817.91;;;-2.36;100.00
20455;BME280;10386;54.314;10.022;2023-12-04T05:33:00;101813.47;;;-2.34;100.00
20455;BME280;10386;54.314;10.022;2023-12-04T05:35:27;101812.56;;;-2.35;100.00
20455;BME280;10386;54.314;10.022;2023-12-04T05:37:53;101815.25;;;-2.41;100.00
20455;BME280;10386;54.314;10.022;2023-12-04T05:40:22;101815.22;;;-2.32;100.00
20455;BME280;10386;54.314;10.022;2023-12-04T05:42:49;101809.00;;;-2.26;100.00
20455;BME280;10386;54.314;10.022;2023-12-04T05:45:26;101808.09;;;-2.22;100.00
20455;BME280;10386;54.314;10.022;2023-12-04T05:47:54;101804.56;;;-2.24;100.00
20455;BME280;10386;54.314;10.022;2023-12-04T05:50:21;101807.19;;;-2.21;100.00
20455;BME280;10386;54.314;10.022;2023-12-04T05:52:52;101795.66;;;-2.14;100.00
20455;BME280;10386;54.314;10.022;2023-12-04T05:55:21;101793.88;;;-2.15;100.00
20455;BME280;10386;54.314;10.022;2023-12-04T05:57:59;101799.22;;;-2.18;100.00
20455;BME280;10386;54.314;10.022;2023-12-04T06:00:33;101793.84;;;-2.08;100.00
20455;BME280;10386;54.314;10.022;2023-12-04T06:03:15;101787.56;;;-1.92;100.00
20455;BME280;10386;54.314;10.022;2023-12-04T06:05:42;101783.09;;;-1.91;100.00
20455;BME280;10386;54.314;10.022;2023-12-04T06:08:15;101762.59;;;-1.73;100.00
20455;BME280;10386;54.314;10.022;2023-12-04T06:10:50;101769.56;;;-1.55;100.00
20455;BME280;10386;54.314;10.022;2023-12-04T06:13:24;101767.88;;;-1.67;100.00
20455;BME280;10386;54.314;10.022;2023-12-04T06:39:13;101740.09;;;-1.36;100.00
20455;BME280;10386;54.314;10.022;2023-12-04T06:41:40;101734.72;;;-1.27;100.00
20455;BME280;10386;54.314;10.022;2023-12-04T06:44:08;101727.63;;;-1.31;100.00
20455;BME280;10386;54.314;10.022;2023-12-04T06:46:38;101737.47;;;-1.38;100.00
20455;BME280;10386;54.314;10.022;2023-12-04T06:49:06;101738.31;;;-1.33;100.00
20455;BME280;10386;54.314;10.022;2023-12-04T06:51:33;101741.81;;;-1.29;100.00
20455;BME280;10386;54.314;10.022;2023-12-04T06:54:00;101743.47;;;-1.13;100.00
20455;BME280;10386;54.314;10.022;2023-12-04T06:56:30;101746.25;;;-1.27;100.00
20455;BME280;10386;54.314;10.022;2023-12-04T06:58:57;101743.53;;;-1.19;100.00
20455;BME280;10386;54.314;10.022;2023-12-04T07:01:23;101734.47;;;-1.03;100.00
20455;BME280;10386;54.314;10.022;2023-12-04T07:03:50;101740.81;;;-1.16;100.00
20455;BME280;10386;54.314;10.022;2023-12-04T07:06:17;101733.75;;;-1.22;100.00
20455;BME280;10386;54.314;10.022;2023-12-04T07:08:44;101742.56;;;-1.14;100.00
20455;BME280;10386;54.314;10.022;2023-12-04T07:11:11;101735.38;;;-1.06;100.00
20455;BME280;10386;54.314;10.022;2023-12-04T07:13:41;101738.19;;;-1.19;100.00
20455;BME280;10386;54.314;10.022;2023-12-04T07:16:09;101746.22;;;-1.24;100.00
20455;BME280;10386;54.314;10.022;2023-12-04T07:18:36;101737.34;;;-1.24;100.00
20455;BME280;10386;54.314;10.022;2023-12-04T07:21:03;101732.00;;;-1.23;100.00
20455;BME280;10386;54.314;10.022;2023-12-04T07:23:30;101734.63;;;-1.18;100.00
20455;BME280;10386;54.314;10.022;2023-12-04T07:25:57;101739.06;;;-1.19;100.00
20455;BME280;10386;54.314;10.022;2023-12-04T07:28:24;101743.53;;;-1.21;100.00
20455;BME280;10386;54.314;10.022;2023-12-04T07:30:51;101745.91;;;-0.92;100.00
20455;BME280;10386;54.314;10.022;2023-12-04T07:33:18;101738.91;;;-1.04;100.00
20455;BME280;10386;54.314;10.022;2023-12-04T07:35:44;101744.34;;;-1.16;100.00
20455;BME280;10386;54.314;10.022;2023-12-04T07:38:11;101749.63;;;-1.08;100.00
20455;BME280;10386;54.314;10.022;2023-12-04T07:40:38;101747.91;;;-1.15;100.00
20455;BME280;10386;54.314;10.022;2023-12-04T07:43:05;101745.13;;;-1.05;100.00
20455;BME280;10386;54.314;10.022;2023-12-04T07:45:32;101752.09;;;-0.92;100.00
20455;BME280;10386;54.314;10.022;2023-12-04T07:48:01;101745.84;;;-0.86;100.00
20455;BME280;10386;54.314;10.022;2023-12-04T07:50:28;101755.66;;;-0.93;100.00
20455;BME280;10386;54.314;10.022;2023-12-04T07:52:55;101756.56;;;-0.94;100.00
20455;BME280;10386;54.314;10.022;2023-12-04T07:55:21;101749.47;;;-0.95;100.00
20455;BME280;10386;54.314;10.022;2023-12-04T07:57:48;101755.66;;;-0.91;100.00
20455;BME280;10386;54.314;10.022;2023-12-04T08:00:17;101752.13;;;-0.95;100.00
20455;BME280;10386;54.314;10.022;2023-12-04T08:02:49;101748.56;;;-0.92;100.00
20455;BME280;10386;54.314;10.022;2023-12-04T08:05:16;101753.97;;;-0.98;100.00
20455;BME280;10386;54.314;10.022;2023-12-04T08:07:43;101748.56;;;-0.94;100.00
20455;BME280;10386;54.314;10.022;2023-12-04T08:10:11;101744.94;;;-0.87;100.00
20455;BME280;10386;54.314;10.022;2023-12-04T08:12:38;101730.72;;;-0.84;100.00
20455;BME280;10386;54.314;10.022;2023-12-04T08:15:06;101709.31;;;-0.77;100.00
20455;BME280;10386;54.314;10.022;2023-12-04T08:17:33;101679.06;;;-0.73;100.00
20455;BME280;10386;54.314;10.022;2023-12-04T08:20:00;101672.88;;;-0.76;100.00
20455;BME280;10386;54.314;10.022;2023-12-04T08:22:28;101674.66;;;-0.77;100.00
20455;BME280;10386;54.314;10.022;2023-12-04T08:24:55;101674.50;;;-0.65;100.00
20455;BME280;10386;54.314;10.022;2023-12-04T08:27:22;101673.56;;;-0.61;100.00
20455;BME280;10386;54.314;10.022;2023-12-04T08:29:49;101668.50;;;-0.82;100.00
20455;BME280;10386;54.314;10.022;2023-12-04T08:32:16;101667.41;;;-0.67;100.00
20455;BME280;10386;54.314;10.022;2023-12-04T08:34:43;101654.13;;;-0.70;100.00
20455;BME280;10386;54.314;10.022;2023-12-04T08:37:11;101658.53;;;-0.65;100.00
20455;BME280;10386;54.314;10.022;2023-12-04T08:39:38;101666.44;;;-0.59;100.00
20455;BME280;10386;54.314;10.022;2023-12-04T08:42:05;101663.81;;;-0.62;100.00
20455;BME280;10386;54.314;10.022;2023-12-04T08:44:40;101662.88;;;-0.58;100.00
20455;BME280;10386;54.314;10.022;2023-12-04T08:47:07;101660.25;;;-0.61;100.00
20455;BME280;10386;54.314;10.022;2023-12-04T08:49:33;101668.19;;;-0.59;100.00
20455;BME280;10386;54.314;10.022;2023-12-04T08:52:11;101670.63;;;-0.40;100.00
20455;BME280;10386;54.314;10.022;2023-12-04T08:54:39;101672.47;;;-0.46;100.00
20455;BME280;10386;54.314;10.022;2023-12-04T08:57:08;101672.38;;;-0.39;100.00
20455;BME280;10386;54.314;10.022;2023-12-04T08:59:35;101666.81;;;-0.24;100.00
20455;BME280;10386;54.314;10.022;2023-12-04T09:02:02;101671.34;;;-0.29;100.00
20455;BME280;10386;54.314;10.022;2023-12-04T09:04:32;101662.28;;;-0.17;100.00
20455;BME280;10386;54.314;10.022;2023-12-04T09:07:00;101668.69;;;-0.27;100.00
20455;BME280;10386;54.314;10.022;2023-12-04T09:09:29;101669.72;;;-0.37;100.00
20455;BME280;10386;54.314;10.022;2023-12-04T09:11:57;101670.41;;;-0.25;100.00
20455;BME280;10386;54.314;10.022;2023-12-04T09:14:24;101669.63;;;-0.33;100.00
20455;BME280;10386;54.314;10.022;2023-12-04T09:16:51;101673.09;;;-0.26;100.00
20455;BME280;10386;54.314;10.022;2023-12-04T09:19:18;101665.97;;;-0.26;100.00
20455;BME280;10386;54.314;10.022;2023-12-04T09:21:45;101668.63;;;-0.26;100.00
20455;BME280;10386;54.314;10.022;2023-12-04T09:24:17;101657.16;;;-0.29;100.00
20455;BME280;10386;54.314;10.022;2023-12-04T09:26:43;101672.28;;;-0.33;100.00
20455;BME280;10386;54.314;10.022;2023-12-04T09:29:13;101657.91;;;-0.21;100.00
20455;BME280;10386;54.314;10.022;2023-12-04T09:31:40;101665.06;;;-0.25;100.00
20455;BME280;10386;54.314;10.022;2023-12-04T09:34:07;101655.25;;;-0.23;100.00
20455;BME280;10386;54.314;10.022;2023-12-04T09:36:34;101657.06;;;-0.25;100.00
20455;BME280;10386;54.314;10.022;2023-12-04T09:39:01;101666.81;;;-0.24;100.00
20455;BME280;10386;54.314;10.022;2023-12-04T09:41:31;101662.22;;;-0.13;100.00
20455;BME280;10386;54.314;10.022;2023-12-04T09:43:59;101662.38;;;-0.23;100.00
20455;BME280;10386;54.314;10.022;2023-12-04T09:46:26;101662.34;;;-0.22;100.00
20455;BME280;10386;54.314;10.022;2023-12-04T09:48:54;101654.06;;;-0.04;100.00
20455;BME280;10386;54.314;10.022;2023-12-04T09:51:22;101666.00;;;-0.27;100.00
20455;BME280;10386;54.314;10.022;2023-12-04T09:53:50;101652.25;;;0.01;100.00
20455;BME280;10386;54.314;10.022;2023-12-04T09:56:19;101651.28;;;0.03;100.00
20455;BME280;10386;54.314;10.022;2023-12-04T09:58:52;101648.97;;;-0.19;100.00
20455;BME280;10386;54.314;10.022;2023-12-04T10:01:21;101655.34;;;-0.27;100.00
20455;BME280;10386;54.314;10.022;2023-12-04T10:03:48;101646.34;;;-0.22;100.00
20455;BME280;10386;54.314;10.022;2023-12-04T10:06:17;101646.09;;;-0.05;100.00
20455;BME280;10386;54.314;10.022;2023-12-04T10:08:44;101645.28;;;-0.12;100.00
20455;BME280;10386;54.314;10.022;2023-12-04T10:11:14;101639.00;;;-0.08;100.00
20455;BME280;10386;54.314;10.022;2023-12-04T10:13:41;101635.28;;;0.03;100.00
20455;BME280;10386;54.314;10.022;2023-12-04T10:16:32;101621.97;;;0.02;100.00
20455;BME280;10386;54.314;10.022;2023-12-04T10:19:22;101638.97;;;-0.05;100.00
20455;BME280;10386;54.314;10.022;2023-12-04T10:21:50;101627.31;;;-0.01;100.00
20455;BME280;10386;54.314;10.022;2023-12-04T10:26:59;101620.38;;;-0.11;100.00
20455;BME280;10386;54.314;10.022;2023-12-04T10:29:28;101629.97;;;0.02;100.00
20455;BME280;10386;54.314;10.022;2023-12-04T10:31:59;101621.09;;;0.01;100.00
20455;BME280;10386;54.314;10.022;2023-12-04T10:34:29;101625.34;;;0.11;100.00
20455;BME280;10386;54.314;10.022;2023-12-04T10:36:56;101619.25;;;0.05;100.00
20455;BME280;10386;54.314;10.022;2023-12-04T10:39:24;101611.09;;;0.12;100.00
20455;BME280;10386;54.314;10.022;2023-12-04T10:41:59;101619.25;;;0.03;100.00
20455;BME280;10386;54.314;10.022;2023-12-04T10:44:30;101612.72;;;0.22;100.00
20455;BME280;10386;54.314;10.022;2023-12-04T10:46:59;101617.97;;;0.27;100.00
20455;BME280;10386;54.314;10.022;2023-12-04T10:49:28;101613.50;;;0.29;100.00
20455;BME280;10386;54.314;10.022;2023-12-04T10:51:58;101606.34;;;0.29;100.00
20455;BME280;10386;54.314;10.022;2023-12-04T10:54:27;101602.88;;;0.26;100.00
20455;BME280;10386;54.314;10.022;2023-12-04T10:56:58;101602.81;;;0.29;100.00
20455;BME280;10386;54.314;10.022;2023-12-04T10:59:32;101603.75;;;0.26;100.00
20455;BME280;10386;54.314;10.022;2023-12-04T11:02:04;101601.97;;;0.27;100.00
20455;BME280;10386;54.314;10.022;2023-12-04T11:04:34;101591.03;;;0.40;100.00
20455;BME280;10386;54.314;10.022;2023-12-04T11:07:03;101601.75;;;0.39;100.00
20455;BME280;10386;54.314;10.022;2023-12-04T11:09:35;101602.72;;;0.33;100.00
20455;BME280;10386;54.314;10.022;2023-12-04T11:12:06;101604.53;;;0.33;100.00
20455;BME280;10386;54.314;10.022;2023-12-04T11:14:42;101597.53;;;0.26;100.00
20455;BME280;10386;54.314;10.022;2023-12-04T11:17:14;101587.53;;;0.37;100.00
20455;BME280;10386;54.314;10.022;2023-12-04T11:19:54;101587.72;;;0.28;100.00
20455;BME280;10386;54.314;10.022;2023-12-04T11:22:23;101587.81;;;0.22;100.00
20455;BME280;10386;54.314;10.022;2023-12-04T11:24:52;101586.91;;;0.23;100.00
20455;BME280;10386;54.314;10.022;2023-12-04T11:27:20;101578.75;;;0.30;100.00
20455;BME280;10386;54.314;10.022;2023-12-04T11:29:48;101579.88;;;0.19;100.00
20455;BME280;10386;54.314;10.022;2023-12-04T11:32:16;101572.53;;;0.30;100.00
20455;BME280;10386;54.314;10.022;2023-12-04T11:34:50;101579.22;;;0.03;100.00
20455;BME280;10386;54.314;10.022;2023-12-04T11:37:19;101583.53;;;0.12;100.00
20455;BME280;10386;54.314;10.022;2023-12-04T11:39:49;101571.00;;;0.15;100.00
20455;BME280;10386;54.314;10.022;2023-12-04T11:42:22;101584.34;;;0.17;100.00
20455;BME280;10386;54.314;10.022;2023-12-04T11:44:50;101562.25;;;0.07;100.00
20455;BME280;10386;54.314;10.022;2023-12-04T11:47:22;101575.69;;;0.03;100.00
20455;BME280;10386;54.314;10.022;2023-12-04T11:49:49;101574.69;;;0.10;100.00
20455;BME280;10386;54.314;10.022;2023-12-04T11:52:16;101577.41;;;0.05;100.00
20455;BME280;10386;54.314;10.022;2023-12-04T11:55:04;101579.97;;;0.11;100.00
20455;BME280;10386;54.314;10.022;2023-12-04T11:57:35;101567.72;;;0.01;100.00
20455;BME280;10386;54.314;10.022;2023-12-04T12:00:09;101575.69;;;0.03;100.00
20455;BME280;10386;54.314;10.022;2023-12-04T12:05:44;101566.72;;;0.07;100.00
20455;BME280;10386;54.314;10.022;2023-12-04T12:08:11;101561.53;;;-0.02;100.00
20455;BME280;10386;54.314;10.022;2023-12-04T12:10:38;101562.34;;;0.03;100.00
20455;BME280;10386;54.314;10.022;2023-12-04T12:13:05;101558.94;;;-0.06;100.00
20455;BME280;10386;54.314;10.022;2023-12-04T12:15:32;101556.25;;;-0.05;100.00
20455;BME280;10386;54.314;10.022;2023-12-04T12:18:00;101552.38;;;0.14;100.00
20455;BME280;10386;54.314;10.022;2023-12-04T12:20:27;101543.63;;;0.06;100.00
20455;BME280;10386;54.314;10.022;2023-12-04T12:22:54;101552.47;;;0.08;100.00
20455;BME280;10386;54.314;10.022;2023-12-04T12:25:22;101548.16;;;-0.01;100.00
20455;BME280;10386;54.314;10.022;2023-12-04T12:27:50;101554.28;;;0.06;100.00
20455;BME280;10386;54.314;10.022;2023-12-04T12:30:17;101558.22;;;-0.16;100.00
20455;BME280;10386;54.314;10.022;2023-12-04T12:32:44;101555.53;;;-0.16;100.00
20455;BME280;10386;54.314;10.022;2023-12-04T12:35:11;101558.16;;;-0.13;100.00
20455;BME280;10386;54.314;10.022;2023-12-04T12:37:39;101549.06;;;-0.02;100.00
20455;BME280;10386;54.314;10.022;2023-12-04T12:40:06;101548.13;;;0.02;100.00
20455;BME280;10386;54.314;10.022;2023-12-04T12:42:36;101541.13;;;-0.04;100.00
20455;BME280;10386;54.314;10.022;2023-12-04T12:45:06;101533.19;;;-0.09;100.00
20455;BME280;10386;54.314;10.022;2023-12-04T12:47:34;101529.56;;;-0.05;100.00
20455;BME280;10386;54.314;10.022;2023-12-04T12:50:01;101520.50;;;0.05;100.00
20455;BME280;10386;54.314;10.022;2023-12-04T12:52:29;101515.94;;;0.11;100.00
20455;BME280;10386;54.314;10.022;2023-12-04T12:54:56;101523.03;;;0.12;100.00
20455;BME280;10386;54.314;10.022;2023-12-04T12:57:23;101519.53;;;0.09;100.00
20455;BME280;10386;54.314;10.022;2023-12-04T12:59:50;101516.19;;;-0.03;100.00
20455;BME280;10386;54.314;10.022;2023-12-04T13:02:16;101517.91;;;0.00;100.00
20455;BME280;10386;54.314;10.022;2023-12-04T13:04:44;101526.13;;;-0.11;100.00
20455;BME280;10386;54.314;10.022;2023-12-04T13:07:11;101513.53;;;-0.05;100.00